Terminal Aerodrome Forecast
Issued by NWS Chicago, IL

Home | Current Version | Previous Version | Text Only | Print | Product List | Glossary Off
Versions: 1 2 3 4 5 6 7 8 9 10 11 12 13 14 15 16 17 18 19 20 21

295
FTUS43 KLOT 210841 AAA
TAFRFD
TAF AMD
KRFD 210841Z 2109/2206 14004KT P6SM SCT060 OVC150
      TEMPO 2109/2111 5SM -SHRA BKN050
     FM211100 VRB03KT 6SM BR VCSH BKN050
     FM211300 16005KT P6SM BKN250
     FM211600 19010KT P6SM SCT250=

USA.gov is the U.S. government's official web portal to all federal, state and local government web resources and services.